Time;durP1;ratioP1;P1;durP2;ratioP2;P2;SDS_P1;SDS_P2;PMS_P1;PMS_P2;Temp;Humidity;BMP_temperature;BMP_pressure;BME280_temperature;BME280_humidity;BME280_pressure;Samples;Min_cycle;Max_cycle;Signal;HPM_P1;HPM_P2
2022/05/18 00:00:29;;;;;;;4.03;3.20;;;23.20;67.70;;;;;;4994655;28;20455;-66
2022/05/18 00:03:04;;;;;;;5.30;3.67;;;23.20;67.90;;;;;;4993736;28;20182;-65
2022/05/18 00:05:34;;;;;;;5.43;3.13;;;23.20;68.20;;;;;;4998535;28;20451;-67
2022/05/18 00:08:00;;;;;;;6.13;3.47;;;23.10;68.30;;;;;;4993463;28;20785;-66
2022/05/18 00:10:26;;;;;;;5.10;3.90;;;23.10;68.80;;;;;;4999902;28;20526;-67
2022/05/18 00:12:52;;;;;;;5.30;3.50;;;23.10;68.90;;;;;;4995208;28;20185;-66
2022/05/18 00:15:21;;;;;;;5.17;3.40;;;23.10;69.30;;;;;;4997434;28;20566;-66
2022/05/18 00:17:47;;;;;;;6.13;3.60;;;23.00;69.40;;;;;;4997149;28;20471;-66
2022/05/18 00:20:13;;;;;;;6.93;3.80;;;23.00;69.70;;;;;;4993977;28;20440;-66
2022/05/18 00:22:53;;;;;;;5.07;3.60;;;22.90;70.20;;;;;;4996605;28;20832;-66
2022/05/18 00:25:23;;;;;;;4.07;3.67;;;22.90;70.00;;;;;;4997467;28;20436;-66
2022/05/18 00:27:49;;;;;;;6.07;3.90;;;22.90;70.60;;;;;;4993229;28;20989;-66
2022/05/18 00:30:16;;;;;;;5.77;3.43;;;22.80;70.70;;;;;;4993303;28;20463;-66
2022/05/18 00:32:42;;;;;;;4.97;3.77;;;22.80;71.00;;;;;;4996322;28;20185;-67
2022/05/18 00:35:09;;;;;;;4.20;3.60;;;22.80;71.00;;;;;;4991931;28;20464;-67
2022/05/18 00:37:35;;;;;;;7.53;3.80;;;22.70;71.20;;;;;;4995610;28;20201;-66
2022/05/18 00:40:00;;;;;;;5.70;3.37;;;22.70;71.40;;;;;;4993604;28;20928;-65
2022/05/18 00:42:28;;;;;;;4.00;3.60;;;22.60;71.60;;;;;;4996982;28;20185;-65
2022/05/18 00:44:54;;;;;;;4.77;3.80;;;22.70;71.80;;;;;;4993004;28;20684;-66
2022/05/18 00:47:20;;;;;;;6.90;3.67;;;22.50;72.20;;;;;;4998017;28;20446;-66
2022/05/18 00:49:50;;;;;;;7.17;3.83;;;22.50;72.50;;;;;;4992492;28;20925;-66
2022/05/18 00:52:22;;;;;;;4.17;3.57;;;22.60;72.40;;;;;;4994662;28;20193;-66
2022/05/18 00:54:50;;;;;;;6.83;3.60;;;22.50;72.70;;;;;;4994975;28;20464;-66
2022/05/18 00:57:24;;;;;;;3.90;3.60;;;22.50;72.60;;;;;;4994165;28;20468;-66
2022/05/18 00:59:55;;;;;;;4.43;3.60;;;22.50;72.80;;;;;;4997800;28;20526;-66
2022/05/18 01:02:23;;;;;;;5.43;3.90;;;22.40;73.60;;;;;;4994132;28;20792;-66
2022/05/18 01:04:55;;;;;;;6.33;4.00;;;22.40;73.00;;;;;;4993622;28;20462;-67
2022/05/18 01:07:27;;;;;;;4.17;3.50;;;22.40;73.10;;;;;;4998711;28;20448;-67
2022/05/18 01:09:53;;;;;;;4.10;3.70;;;22.40;73.00;;;;;;4994890;28;20876;-66
2022/05/18 01:12:20;;;;;;;5.40;3.70;;;22.50;72.90;;;;;;4997962;28;20530;-66
2022/05/18 01:15:09;;;;;;;5.80;3.97;;;22.50;73.00;;;;;;4996311;28;20212;-66
2022/05/18 01:17:38;;;;;;;4.33;3.70;;;22.40;73.00;;;;;;4996013;28;20463;-66
2022/05/18 01:20:07;;;;;;;4.70;3.60;;;22.40;73.20;;;;;;5011689;28;21048;-66
2022/05/18 01:23:15;;;;;;;3.70;3.40;;;22.40;73.30;;;;;;4995711;28;20645;-65
2022/05/18 01:25:53;;;;;;;3.87;3.50;;;22.40;73.30;;;;;;4994324;28;20441;-66
2022/05/18 01:28:23;;;;;;;5.97;4.00;;;22.40;73.50;;;;;;4997339;28;21222;-67
2022/05/18 01:30:48;;;;;;;3.80;3.33;;;22.30;73.30;;;;;;4993357;28;21020;-67
2022/05/18 01:33:17;;;;;;;3.83;3.43;;;22.30;73.40;;;;;;4996839;28;20868;-68
2022/05/18 01:35:45;;;;;;;4.67;3.53;;;22.30;73.40;;;;;;4995648;28;20268;-68
2022/05/18 01:38:14;;;;;;;4.80;3.60;;;22.20;73.60;;;;;;4994870;28;20667;-68
2022/05/18 01:41:02;;;;;;;3.93;3.53;;;22.10;74.30;;;;;;4995464;28;20594;-69
2022/05/18 01:43:30;;;;;;;4.10;3.70;;;22.10;74.20;;;;;;4996541;28;20539;-68
2022/05/18 01:45:59;;;;;;;5.70;3.90;;;22.10;73.80;;;;;;4996138;28;20510;-68
2022/05/18 01:48:32;;;;;;;4.10;3.63;;;22.20;73.70;;;;;;4994957;28;20447;-65
2022/05/18 01:50:59;;;;;;;4.37;3.47;;;22.10;73.90;;;;;;4992364;28;20471;-65
2022/05/18 01:53:25;;;;;;;4.13;3.73;;;22.10;73.70;;;;;;4993966;28;20441;-68
2022/05/18 01:55:50;;;;;;;4.83;3.60;;;22.10;73.80;;;;;;4996785;28;20455;-68
2022/05/18 01:58:16;;;;;;;5.53;3.80;;;22.00;74.20;;;;;;4992440;28;20260;-68
2022/05/18 02:00:44;;;;;;;3.50;3.20;;;22.00;74.50;;;;;;4996356;28;20183;-67
2022/05/18 02:03:10;;;;;;;4.13;3.43;;;22.00;74.50;;;;;;4998001;28;20177;-67
2022/05/18 02:05:36;;;;;;;4.43;3.67;;;22.00;74.40;;;;;;4998342;28;20447;-67
2022/05/18 02:08:03;;;;;;;9.40;3.50;;;22.00;74.50;;;;;;4998988;28;20780;-67
2022/05/18 02:10:28;;;;;;;4.53;3.40;;;22.00;74.70;;;;;;5015835;28;20440;-67
2022/05/18 02:12:54;;;;;;;3.90;3.50;;;22.00;74.80;;;;;;5002051;28;20501;-68
2022/05/18 02:15:22;;;;;;;3.97;3.57;;;21.90;74.80;;;;;;4996763;28;20201;-67
2022/05/18 02:17:50;;;;;;;4.03;3.50;;;21.90;74.70;;;;;;5000023;28;20205;-67
2022/05/18 02:20:16;;;;;;;4.53;3.23;;;21.90;75.00;;;;;;4998904;28;20428;-66
2022/05/18 02:22:42;;;;;;;4.20;3.80;;;21.90;75.00;;;;;;5001509;28;20490;-67
2022/05/18 02:25:08;;;;;;;6.47;3.80;;;21.90;74.90;;;;;;4998790;28;20867;-66
2022/05/18 02:27:34;;;;;;;4.90;3.53;;;21.90;75.10;;;;;;4999531;28;20456;-66
2022/05/18 02:30:01;;;;;;;3.93;3.63;;;21.80;75.50;;;;;;4995239;28;20635;-66
2022/05/18 02:32:27;;;;;;;4.43;4.03;;;21.80;75.80;;;;;;4997120;28;20444;-66
2022/05/18 02:34:52;;;;;;;5.50;3.20;;;21.80;76.00;;;;;;4996844;28;20475;-66
2022/05/18 02:37:18;;;;;;;3.43;3.10;;;21.80;75.70;;;;;;5000168;28;20181;-66
2022/05/18 02:39:44;;;;;;;3.53;3.23;;;21.80;75.60;;;;;;4997271;28;20781;-66
2022/05/18 02:42:10;;;;;;;4.20;3.73;;;21.80;75.80;;;;;;4999753;28;20484;-66
2022/05/18 02:44:35;;;;;;;4.10;3.70;;;21.80;76.00;;;;;;4999377;28;20184;-66
2022/05/18 02:47:01;;;;;;;3.93;3.53;;;21.80;76.40;;;;;;4997785;28;20185;-65
2022/05/18 02:49:27;;;;;;;7.67;3.90;;;21.70;76.50;;;;;;4996930;28;20218;-66
2022/05/18 02:51:53;;;;;;;7.17;3.90;;;21.70;76.70;;;;;;4996743;28;20174;-66
2022/05/18 02:57:06;;;;;;;8.03;3.70;;;21.60;77.20;;;;;;5000833;28;20534;-66
2022/05/18 02:59:33;;;;;;;5.33;3.80;;;21.60;77.30;;;;;;4998612;28;20531;-66
2022/05/18 03:02:00;;;;;;;4.00;3.60;;;21.50;77.90;;;;;;4998199;28;21153;-66
2022/05/18 03:04:26;;;;;;;6.60;3.80;;;21.40;79.70;;;;;;4997329;28;20846;-66
2022/05/18 03:06:52;;;;;;;6.23;3.60;;;21.40;78.40;;;;;;4996100;28;20476;-67
2022/05/18 03:09:18;;;;;;;4.03;3.60;;;21.50;78.40;;;;;;4997154;28;20465;-68
2022/05/18 03:11:46;;;;;;;4.20;3.80;;;21.40;78.60;;;;;;4996654;28;20474;-67
2022/05/18 03:14:12;;;;;;;3.67;3.37;;;21.50;78.50;;;;;;5007569;28;20711;-67
2022/05/18 03:16:39;;;;;;;4.90;4.50;;;21.40;79.20;;;;;;4998901;28;20566;-67
2022/05/18 03:19:04;;;;;;;3.63;3.33;;;21.50;78.60;;;;;;5009898;28;20221;-66
2022/05/18 03:24:14;;;;;;;6.33;3.60;;;21.50;78.40;;;;;;4997720;28;20192;-66
2022/05/18 03:26:40;;;;;;;7.33;4.47;;;21.30;78.80;;;;;;5000630;28;20436;-67
2022/05/18 03:29:05;;;;;;;5.50;3.70;;;21.30;79.10;;;;;;4995701;28;20708;-67
2022/05/18 03:31:31;;;;;;;4.90;3.60;;;21.30;79.40;;;;;;4998435;28;20216;-67
2022/05/18 03:34:00;;;;;;;4.37;3.90;;;21.30;79.40;;;;;;4995846;28;20205;-67
2022/05/18 03:36:26;;;;;;;5.10;3.67;;;21.30;79.40;;;;;;4997467;28;20238;-68
2022/05/18 03:38:52;;;;;;;4.83;4.03;;;21.30;80.00;;;;;;4998759;28;20991;-67
2022/05/18 03:41:18;;;;;;;5.53;3.70;;;21.30;80.10;;;;;;4997979;28;20502;-68
2022/05/18 03:43:44;;;;;;;4.30;3.77;;;21.30;79.90;;;;;;4999869;28;20178;-68
2022/05/18 03:46:11;;;;;;;4.17;3.77;;;21.30;79.70;;;;;;4998338;28;20447;-68
2022/05/18 03:48:38;;;;;;;4.70;3.93;;;21.40;79.50;;;;;;4998356;28;20903;-68
2022/05/18 03:51:05;;;;;;;4.70;4.30;;;21.40;79.40;;;;;;4994610;28;20428;-68
2022/05/18 03:53:31;;;;;;;6.00;3.80;;;21.30;79.40;;;;;;4996752;28;20821;-68
2022/05/18 03:55:56;;;;;;;4.20;3.27;;;21.30;79.50;;;;;;4998356;28;20564;-68
2022/05/18 03:58:22;;;;;;;3.70;3.30;;;21.30;79.90;;;;;;4997776;28;20209;-67
2022/05/18 04:00:51;;;;;;;5.63;4.17;;;21.30;80.40;;;;;;4996384;28;20186;-67
2022/05/18 04:03:18;;;;;;;7.53;4.50;;;21.20;80.40;;;;;;5009872;28;20663;-68
2022/05/18 04:05:44;;;;;;;5.43;4.50;;;21.20;80.60;;;;;;4997179;28;20535;-67
2022/05/18 04:08:11;;;;;;;4.77;4.37;;;21.30;80.50;;;;;;4999397;28;20466;-68
2022/05/18 04:10:38;;;;;;;5.57;4.03;;;21.30;80.80;;;;;;4994327;28;20445;-67
2022/05/18 04:13:05;;;;;;;7.30;4.07;;;21.30;80.60;;;;;;4997553;28;20471;-67
2022/05/18 04:15:31;;;;;;;5.90;4.10;;;21.30;80.70;;;;;;4997425;28;20734;-66
2022/05/18 04:17:57;;;;;;;3.90;3.60;;;21.20;80.90;;;;;;4996948;28;20480;-66
2022/05/18 04:20:23;;;;;;;4.07;3.73;;;21.30;80.80;;;;;;4998368;28;20188;-66
2022/05/18 04:22:50;;;;;;;4.40;4.00;;;21.30;80.90;;;;;;4992291;28;20792;-67
2022/05/18 04:25:20;;;;;;;6.97;4.30;;;21.20;80.90;;;;;;4998394;28;20451;-67
2022/05/18 04:27:49;;;;;;;5.50;4.10;;;21.30;81.00;;;;;;4998480;28;21036;-68
2022/05/18 04:30:16;;;;;;;8.67;4.57;;;21.30;80.90;;;;;;4992026;28;20499;-68
2022/05/18 04:32:42;;;;;;;6.80;4.80;;;21.20;81.00;;;;;;4997244;28;20526;-67
2022/05/18 04:35:09;;;;;;;6.60;6.00;;;21.20;82.20;;;;;;4994170;28;20904;-67
2022/05/18 04:37:36;;;;;;;5.60;5.00;;;21.20;81.90;;;;;;4997791;28;20593;-68
2022/05/18 04:40:02;;;;;;;7.60;4.30;;;21.30;82.00;;;;;;4993713;28;20504;-67
2022/05/18 04:42:28;;;;;;;4.97;4.47;;;21.20;82.80;;;;;;4998472;28;20441;-67
2022/05/18 04:44:53;;;;;;;8.23;4.03;;;21.20;82.70;;;;;;4997645;28;20444;-66
2022/05/18 04:47:24;;;;;;;4.93;4.00;;;21.20;82.20;;;;;;4994558;28;20228;-66
2022/05/18 04:49:50;;;;;;;3.80;3.40;;;21.20;82.50;;;;;;4994531;28;20188;-66
2022/05/18 04:52:20;;;;;;;8.13;4.60;;;21.20;82.50;;;;;;4997303;28;20440;-66
2022/05/18 04:54:46;;;;;;;7.50;3.97;;;21.30;82.40;;;;;;4993820;28;21119;-67
2022/05/18 04:57:12;;;;;;;4.90;3.87;;;21.30;82.50;;;;;;4999005;28;20487;-68
2022/05/18 04:59:37;;;;;;;4.17;3.83;;;21.30;82.70;;;;;;4993791;28;20980;-68
2022/05/18 05:02:04;;;;;;;5.27;4.03;;;21.40;82.70;;;;;;4997241;28;20437;-68
2022/05/18 05:04:31;;;;;;;6.30;3.90;;;21.40;82.80;;;;;;4994289;28;20685;-67
2022/05/18 05:06:56;;;;;;;4.50;4.10;;;21.40;82.70;;;;;;5010167;28;20974;-67
2022/05/18 05:09:24;;;;;;;5.10;3.97;;;21.40;83.00;;;;;;4996355;28;20468;-66
2022/05/18 05:11:53;;;;;;;5.30;4.80;;;21.40;83.00;;;;;;4995384;28;20300;-67
2022/05/18 05:14:19;;;;;;;7.63;5.73;;;21.40;84.50;;;;;;4993567;28;20472;-67
2022/05/18 05:16:46;;;;;;;4.90;4.40;;;21.50;84.00;;;;;;4997005;28;20774;-69
2022/05/18 05:19:12;;;;;;;6.00;4.70;;;21.50;84.30;;;;;;4995495;28;20879;-68
2022/05/18 05:21:44;;;;;;;6.40;5.80;;;21.50;83.80;;;;;;4994439;28;20428;-69
2022/05/18 05:24:10;;;;;;;6.30;4.30;;;21.60;83.90;;;;;;4998317;28;20450;-67
2022/05/18 05:26:37;;;;;;;4.80;4.10;;;21.60;84.10;;;;;;4995000;28;20449;-67
2022/05/18 05:29:03;;;;;;;4.87;4.30;;;21.60;84.10;;;;;;4994408;28;20488;-67
2022/05/18 05:31:29;;;;;;;5.63;4.17;;;21.60;84.60;;;;;;4995565;28;20453;-67
2022/05/18 05:33:54;;;;;;;4.40;3.43;;;21.60;84.30;;;;;;4995065;28;20468;-67
2022/05/18 05:36:20;;;;;;;6.70;4.63;;;21.70;83.90;;;;;;4997988;28;20187;-67
2022/05/18 05:38:46;;;;;;;4.90;4.40;;;21.70;83.60;;;;;;5003113;28;20602;-67
2022/05/18 05:41:11;;;;;;;5.20;4.27;;;21.60;84.00;;;;;;4998732;28;20185;-67
2022/05/18 05:43:37;;;;;;;10.97;4.80;;;21.70;84.00;;;;;;4998633;28;20563;-66
2022/05/18 05:46:05;;;;;;;4.87;4.23;;;21.70;83.90;;;;;;4999774;28;20219;-66
2022/05/18 05:48:33;;;;;;;4.77;3.87;;;21.70;85.00;;;;;;4998741;28;20193;-66
2022/05/18 05:51:00;;;;;;;6.83;4.50;;;21.60;85.10;;;;;;4999649;28;20436;-66
2022/05/18 05:53:25;;;;;;;5.83;4.60;;;21.70;85.90;;;;;;5000506;28;20443;-66
2022/05/18 05:55:53;;;;;;;6.50;4.00;;;21.70;85.50;;;;;;5000179;28;20953;-67
2022/05/18 05:58:20;;;;;;;9.27;4.90;;;21.80;85.30;;;;;;4998147;28;20236;-67
2022/05/18 06:00:46;;;;;;;4.97;4.57;;;21.80;86.90;;;;;;4999507;28;20808;-66
2022/05/18 06:03:15;;;;;;;4.67;4.17;;;21.90;87.60;;;;;;4995277;28;20442;-67
2022/05/18 06:05:41;;;;;;;6.93;4.37;;;21.90;87.60;;;;;;5001825;28;20177;-67
2022/05/18 06:08:07;;;;;;;8.00;4.20;;;22.00;87.80;;;;;;4998344;28;20466;-67
2022/05/18 06:10:34;;;;;;;8.00;4.57;;;22.10;88.40;;;;;;5043275;22;20501;-68
2022/05/18 06:13:04;;;;;;;5.37;4.70;;;22.10;88.00;;;;;;5034337;28;20555;-68
2022/05/18 06:15:30;;;;;;;5.70;4.23;;;22.20;87.90;;;;;;5037341;28;20508;-67
2022/05/18 06:17:55;;;;;;;6.33;4.67;;;22.20;87.80;;;;;;5036253;28;21014;-68
2022/05/18 06:20:21;;;;;;;8.00;4.23;;;22.20;87.90;;;;;;5023846;28;20741;-67
2022/05/18 06:22:46;;;;;;;4.83;4.33;;;22.20;88.20;;;;;;5018003;28;20180;-68
2022/05/18 06:25:14;;;;;;;10.13;4.40;;;22.30;88.30;;;;;;5019662;28;20208;-68
2022/05/18 06:27:41;;;;;;;9.40;5.00;;;22.30;88.60;;;;;;5019796;28;20231;-68
2022/05/18 06:30:08;;;;;;;6.03;4.70;;;22.30;88.60;;;;;;5016648;28;20491;-68
2022/05/18 06:32:34;;;;;;;7.20;4.00;;;22.40;89.00;;;;;;5018413;28;20916;-67
2022/05/18 06:35:00;;;;;;;9.13;4.50;;;22.40;89.10;;;;;;5018730;28;20561;-68
2022/05/18 06:37:25;;;;;;;6.10;4.73;;;22.30;88.70;;;;;;5019296;28;20184;-69
2022/05/18 06:39:51;;;;;;;6.63;5.00;;;22.40;89.00;;;;;;5008709;28;20216;-68
2022/05/18 06:42:17;;;;;;;7.13;4.90;;;22.50;89.60;;;;;;5016700;28;20184;-68
2022/05/18 06:44:42;;;;;;;8.03;5.20;;;22.60;89.60;;;;;;5018817;28;20193;-71
2022/05/18 06:47:08;;;;;;;11.90;8.50;;;22.60;89.00;;;;;;5013110;28;21006;-70
2022/05/18 06:49:34;;;;;;;6.00;4.97;;;22.60;88.60;;;;;;5016640;28;20215;-71
2022/05/18 06:51:59;;;;;;;7.67;6.40;;;22.70;88.00;;;;;;5008180;28;20216;-71
2022/05/18 06:54:25;;;;;;;6.50;4.43;;;22.80;87.20;;;;;;5031869;28;20307;-69
2022/05/18 06:56:51;;;;;;;5.00;4.50;;;22.80;87.00;;;;;;5013564;28;20550;-69
2022/05/18 06:59:18;;;;;;;5.93;4.53;;;22.90;86.60;;;;;;5015609;28;20209;-69
2022/05/18 07:01:44;;;;;;;10.10;8.80;;;22.90;86.20;;;;;;5013364;28;20302;-69
2022/05/18 07:04:10;;;;;;;5.40;4.47;;;23.00;86.10;;;;;;5017783;28;20439;-69
2022/05/18 07:06:39;;;;;;;8.20;5.07;;;23.00;85.70;;;;;;5009755;28;20275;-70
2022/05/18 07:09:15;;;;;;;6.47;5.57;;;23.10;85.70;;;;;;5010341;28;20659;-67
2022/05/18 07:11:46;;;;;;;6.93;5.47;;;23.10;85.80;;;;;;5013684;28;20438;-70
2022/05/18 07:14:12;;;;;;;4.23;3.83;;;23.20;85.50;;;;;;5011023;28;20823;-70
2022/05/18 07:16:40;;;;;;;6.80;4.07;;;23.10;85.30;;;;;;5018418;28;20843;-71
2022/05/18 07:19:06;;;;;;;7.93;4.40;;;23.20;84.80;;;;;;5014796;28;20451;-70
2022/05/18 07:21:32;;;;;;;5.80;4.63;;;23.30;84.70;;;;;;5018542;28;20888;-70
2022/05/18 07:23:58;;;;;;;6.30;3.97;;;23.40;84.40;;;;;;5014384;28;20439;-73
2022/05/18 07:26:26;;;;;;;4.60;3.60;;;23.40;84.40;;;;;;5027935;28;20444;-72
2022/05/18 07:28:51;;;;;;;6.97;4.00;;;23.50;84.50;;;;;;5018418;28;20211;-73
2022/05/18 07:31:19;;;;;;;6.80;4.60;;;23.70;84.00;;;;;;5019880;28;20439;-70
2022/05/18 07:33:47;;;;;;;5.93;4.50;;;23.60;84.40;;;;;;5011802;28;20181;-69
2022/05/18 07:36:13;;;;;;;9.80;4.23;;;23.60;84.60;;;;;;5019542;28;20864;-73
2022/05/18 07:38:40;;;;;;;6.70;4.33;;;23.70;84.30;;;;;;5021685;28;20526;-69
2022/05/18 07:41:07;;;;;;;4.90;4.27;;;23.60;84.80;;;;;;5013694;28;20828;-75
2022/05/18 07:43:33;;;;;;;4.57;4.17;;;23.70;84.50;;;;;;5020964;28;20804;-72
2022/05/18 07:45:59;;;;;;;5.10;4.30;;;23.80;84.10;;;;;;5030196;28;20917;-74
2022/05/18 07:48:25;;;;;;;7.57;4.60;;;23.80;84.00;;;;;;5016823;28;20549;-73
2022/05/18 07:50:52;;;;;;;7.57;3.97;;;23.80;83.90;;;;;;5014447;28;20204;-71
2022/05/18 07:53:18;;;;;;;5.13;4.30;;;23.90;83.90;;;;;;5028332;28;20440;-73
2022/05/18 07:55:44;;;;;;;8.00;4.57;;;24.00;84.30;;;;;;5017502;28;20483;-72
2022/05/18 07:58:12;;;;;;;4.80;4.30;;;24.00;84.10;;;;;;5016000;28;20975;-74
2022/05/18 08:00:39;;;;;;;9.30;5.10;;;24.20;83.10;;;;;;5018404;28;20462;-71
2022/05/18 08:03:07;;;;;;;8.03;4.10;;;24.30;83.10;;;;;;5018144;28;20497;-71
2022/05/18 08:05:33;;;;;;;4.63;4.23;;;24.30;82.70;;;;;;5016183;28;20442;-70
2022/05/18 08:08:07;;;;;;;6.60;4.80;;;24.40;82.40;;;;;;5011608;28;20906;-68
2022/05/18 08:16:01;;;;;;;4.80;4.40;;;24.60;81.90;;;;;;5014524;28;20531;-69
2022/05/18 08:18:27;;;;;;;5.17;4.67;;;24.70;81.20;;;;;;5011810;28;20565;-70
2022/05/18 08:20:53;;;;;;;4.50;4.10;;;24.80;80.80;;;;;;5014996;28;20477;-68
2022/05/18 08:23:19;;;;;;;6.27;4.27;;;24.90;79.90;;;;;;5014181;28;20710;-67
2022/05/18 08:25:46;;;;;;;4.80;4.40;;;25.00;79.60;;;;;;5013982;28;20187;-69
2022/05/18 08:28:13;;;;;;;5.20;4.50;;;25.10;79.10;;;;;;5017516;28;20430;-70
2022/05/18 08:30:39;;;;;;;8.30;4.90;;;25.10;79.00;;;;;;5014630;28;21323;-69
2022/05/18 08:33:05;;;;;;;5.47;4.27;;;25.10;78.80;;;;;;5015054;28;20439;-69
2022/05/18 08:35:31;;;;;;;12.70;4.73;;;25.20;78.20;;;;;;5015359;28;20498;-70
2022/05/18 08:37:57;;;;;;;4.93;4.10;;;25.30;77.00;;;;;;5016301;28;20522;-72
2022/05/18 08:40:29;;;;;;;5.50;4.37;;;25.40;76.60;;;;;;5014666;28;20520;-69
2022/05/18 08:43:08;;;;;;;7.10;4.40;;;25.40;75.90;;;;;;5017701;28;20423;-70
2022/05/18 08:45:41;;;;;;;8.30;4.50;;;25.40;75.70;;;;;;5012636;28;20423;-68
2022/05/18 08:48:40;;;;;;;4.73;4.30;;;25.40;75.90;;;;;;5015489;28;20498;-74
2022/05/18 08:51:32;;;;;;;4.93;4.43;;;25.50;75.80;;;;;;5014209;28;20498;-73
2022/05/18 08:54:09;;;;;;;5.20;4.80;;;25.60;76.00;;;;;;5010506;28;20918;-72
2022/05/18 08:56:41;;;;;;;5.20;3.90;;;25.60;75.50;;;;;;5031771;28;20415;-71
2022/05/18 08:59:13;;;;;;;4.87;4.33;;;25.60;74.60;;;;;;5016113;28;20452;-73
2022/05/18 09:01:42;;;;;;;6.40;4.40;;;25.80;73.00;;;;;;5017471;28;20438;-69
2022/05/18 09:04:21;;;;;;;6.50;4.30;;;25.80;74.20;;;;;;5015399;28;20530;-70
2022/05/18 09:07:07;;;;;;;5.20;4.80;;;26.00;73.80;;;;;;5017709;28;20425;-70
2022/05/18 09:12:39;;;;;;;4.27;3.87;;;26.10;72.10;;;;;;5020482;28;20489;-69
2022/05/18 09:15:10;;;;;;;6.00;4.40;;;26.20;72.60;;;;;;5021356;28;20457;-72
2022/05/18 09:17:55;;;;;;;4.20;3.80;;;26.20;72.20;;;;;;5022456;28;20459;-69
2022/05/18 09:20:35;;;;;;;4.77;4.30;;;26.10;71.30;;;;;;5019120;28;21002;-69
2022/05/18 09:23:38;;;;;;;4.70;4.30;;;26.20;72.40;;;;;;5022084;28;20427;-70
2022/05/18 09:26:25;;;;;;;4.67;4.20;;;26.30;71.70;;;;;;5016841;28;20947;-69
2022/05/18 09:28:52;;;;;;;4.23;3.90;;;26.50;70.20;;;;;;5020283;28;20438;-70
2022/05/18 09:31:33;;;;;;;7.20;5.10;;;26.60;70.80;;;;;;5018992;28;20438;-68
2022/05/18 09:34:17;;;;;;;5.50;4.10;;;26.70;70.10;;;;;;5017415;28;20579;-68
2022/05/18 09:37:01;;;;;;;6.33;3.97;;;26.80;68.90;;;;;;5023791;28;20477;-67
2022/05/18 09:39:33;;;;;;;9.37;4.77;;;26.80;68.80;;;;;;5019997;28;20844;-68
2022/05/18 09:42:03;;;;;;;5.30;4.23;;;26.90;69.20;;;;;;5020152;28;20427;-67
2022/05/18 09:44:43;;;;;;;6.90;4.20;;;26.90;68.80;;;;;;5020165;28;20792;-66
2022/05/18 09:47:13;;;;;;;4.43;4.03;;;27.00;69.00;;;;;;5018768;28;20438;-71
2022/05/18 09:49:43;;;;;;;5.80;4.07;;;26.90;68.00;;;;;;5020212;28;20497;-65
2022/05/18 09:52:10;;;;;;;4.37;3.97;;;26.90;66.30;;;;;;5021804;28;20425;-70
2022/05/18 09:54:37;;;;;;;4.70;3.80;;;27.00;66.10;;;;;;5016281;28;20939;-73
2022/05/18 09:57:40;;;;;;;4.77;4.37;;;26.90;66.90;;;;;;5018343;28;20438;-72
2022/05/18 10:00:10;;;;;;;5.27;4.30;;;27.00;67.20;;;;;;5018568;28;20462;-75
2022/05/18 10:08:24;;;;;;;7.10;5.20;;;27.10;68.80;;;;;;5021061;28;20450;-72
2022/05/18 10:11:04;;;;;;;7.90;4.20;;;27.10;69.00;;;;;;5022280;28;20502;-72
2022/05/18 10:13:40;;;;;;;6.77;6.17;;;27.20;67.40;;;;;;5016033;28;20563;-72
2022/05/18 10:16:27;;;;;;;4.57;4.03;;;27.20;67.70;;;;;;5018609;28;20430;-73
2022/05/18 10:18:57;;;;;;;4.57;3.97;;;27.30;64.60;;;;;;5018043;28;20431;-72
2022/05/18 10:21:32;;;;;;;8.40;4.23;;;27.40;67.20;;;;;;5034056;28;20440;-67
2022/05/18 10:24:04;;;;;;;4.73;4.33;;;27.40;66.40;;;;;;5031114;28;20442;-67
2022/05/18 10:26:38;;;;;;;4.93;4.50;;;27.40;63.70;;;;;;5019777;28;20870;-65
2022/05/18 10:29:19;;;;;;;4.20;3.80;;;27.50;63.20;;;;;;5022283;28;21046;-65
2022/05/18 10:32:05;;;;;;;6.37;5.30;;;27.60;62.30;;;;;;5012799;28;20493;-67
2022/05/18 10:34:39;;;;;;;5.83;3.67;;;27.70;62.10;;;;;;5017122;28;20463;-68
2022/05/18 10:37:10;;;;;;;4.37;3.57;;;27.80;61.70;;;;;;5019806;28;20423;-71
2022/05/18 10:39:47;;;;;;;5.83;4.07;;;27.80;62.10;;;;;;5019569;28;20447;-73
2022/05/18 10:42:27;;;;;;;4.47;4.07;;;27.90;61.80;;;;;;5018376;28;20439;-74
2022/05/18 10:44:55;;;;;;;4.93;3.60;;;28.00;61.80;;;;;;5019026;28;20434;-67
2022/05/18 10:47:34;;;;;;;4.00;3.50;;;28.00;61.10;;;;;;5020196;28;20557;-70
2022/05/18 10:50:34;;;;;;;3.77;3.37;;;28.10;59.40;;;;;;5015254;28;20454;-68
2022/05/18 10:53:12;;;;;;;4.27;3.87;;;28.20;59.20;;;;;;5023115;28;20426;-68
2022/05/18 10:56:00;;;;;;;6.93;3.80;;;28.40;58.30;;;;;;5017019;28;20455;-70
2022/05/18 10:58:47;;;;;;;6.00;3.77;;;28.50;58.00;;;;;;5019827;28;20431;-73
2022/05/18 11:01:24;;;;;;;4.20;3.67;;;28.60;57.70;;;;;;5018998;28;20730;-71
2022/05/18 11:04:11;;;;;;;4.80;4.40;;;28.70;56.10;;;;;;5017452;28;20436;-68
2022/05/18 11:06:39;;;;;;;7.33;3.70;;;28.80;56.50;;;;;;5019235;28;20768;-70
2022/05/18 11:09:13;;;;;;;4.00;3.43;;;28.80;55.70;;;;;;5014293;28;20459;-68
2022/05/18 11:12:02;;;;;;;7.00;5.20;;;29.00;55.40;;;;;;5020613;28;20963;-67
2022/05/18 11:14:41;;;;;;;4.50;4.07;;;29.10;55.20;;;;;;5019316;28;20446;-70
2022/05/18 11:17:44;;;;;;;5.57;3.93;;;29.10;55.70;;;;;;5016807;28;20411;-72
2022/05/18 11:20:23;;;;;;;3.83;3.50;;;29.10;56.70;;;;;;5015650;28;20455;-70
2022/05/18 11:22:58;;;;;;;4.20;3.43;;;29.20;56.70;;;;;;5032316;28;20542;-68
2022/05/18 11:25:42;;;;;;;3.90;3.50;;;29.30;56.50;;;;;;5014638;28;20492;-69
2022/05/18 11:28:38;;;;;;;4.80;3.73;;;29.40;56.70;;;;;;5013564;28;20839;-69
2022/05/18 11:31:21;;;;;;;5.17;3.70;;;29.50;56.30;;;;;;5016908;28;20435;-69
2022/05/18 11:34:16;;;;;;;3.53;3.23;;;29.60;56.10;;;;;;5016846;28;20871;-69
2022/05/18 11:37:01;;;;;;;5.40;4.70;;;29.80;56.20;;;;;;5018162;28;20810;-70
2022/05/18 11:39:54;;;;;;;3.90;3.50;;;29.90;55.00;;;;;;5028257;28;21047;-70
2022/05/18 11:42:42;;;;;;;3.80;3.37;;;30.10;54.30;;;;;;5017769;28;21026;-70
2022/05/18 11:45:21;;;;;;;5.00;3.40;;;30.30;53.90;;;;;;5017068;28;20481;-69
2022/05/18 11:47:56;;;;;;;4.27;3.40;;;30.30;54.00;;;;;;5013274;28;20410;-70
2022/05/18 11:50:21;;;;;;;5.67;3.53;;;30.60;54.40;;;;;;5016032;28;20433;-70
2022/05/18 11:53:16;;;;;;;6.13;3.80;;;30.90;54.20;;;;;;5016713;28;20775;-70
2022/05/18 11:56:04;;;;;;;5.07;3.83;;;31.10;52.90;;;;;;5016051;28;20623;-70
2022/05/18 11:58:52;;;;;;;3.70;3.30;;;31.30;52.10;;;;;;5018549;28;20431;-71
2022/05/18 12:01:50;;;;;;;4.50;3.47;;;31.70;52.10;;;;;;5019531;28;20504;-69
2022/05/18 12:04:42;;;;;;;4.37;3.20;;;32.40;51.70;;;;;;5016101;28;20888;-70
2022/05/18 12:07:45;;;;;;;3.70;3.30;;;33.50;49.90;;;;;;5015435;28;20522;-68
2022/05/18 12:10:44;;;;;;;3.57;3.27;;;34.40;48.20;;;;;;5018434;28;20877;-67
2022/05/18 12:13:17;;;;;;;6.67;4.07;;;34.90;46.70;;;;;;5016739;28;20442;-68
2022/05/18 12:15:51;;;;;;;3.77;3.47;;;35.60;45.90;;;;;;5015775;28;20480;-68
2022/05/18 12:18:27;;;;;;;10.33;3.40;;;36.20;44.20;;;;;;5018768;28;20478;-68
2022/05/18 12:20:58;;;;;;;3.83;3.43;;;36.90;43.80;;;;;;5013363;28;20458;-67
2022/05/18 12:23:29;;;;;;;3.80;3.30;;;37.70;42.10;;;;;;5017953;28;20865;-69
2022/05/18 12:25:56;;;;;;;3.60;3.17;;;38.40;40.90;;;;;;5031333;28;20494;-69
2022/05/18 12:28:23;;;;;;;3.50;3.20;;;39.00;39.70;;;;;;5015324;28;20830;-69
2022/05/18 12:30:50;;;;;;;7.00;4.20;;;39.40;38.80;;;;;;5018046;28;20827;-68
2022/05/18 12:33:19;;;;;;;4.10;3.40;;;39.90;37.70;;;;;;5013221;28;20525;-69
2022/05/18 12:36:05;;;;;;;7.00;4.10;;;40.40;36.70;;;;;;5015778;28;20459;-69
2022/05/18 12:38:52;;;;;;;3.20;3.00;;;40.90;36.10;;;;;;5017608;28;20522;-69
2022/05/18 12:41:18;;;;;;;3.67;3.37;;;41.60;35.80;;;;;;5015266;28;20441;-69
2022/05/18 12:43:43;;;;;;;6.00;3.37;;;42.30;34.60;;;;;;5014955;28;20447;-68
2022/05/18 12:46:15;;;;;;;7.80;7.00;;;43.00;34.10;;;;;;5015503;28;20804;-67
2022/05/18 12:48:47;;;;;;;3.40;3.10;;;43.50;33.10;;;;;;5015432;28;20289;-68
2022/05/18 12:51:29;;;;;;;3.10;2.80;;;43.90;32.50;;;;;;5016719;28;20434;-67
2022/05/18 12:54:09;;;;;;;5.10;4.10;;;44.20;32.00;;;;;;5031530;28;20415;-68
2022/05/18 12:56:35;;;;;;;6.10;3.20;;;44.50;30.80;;;;;;5016190;28;20946;-68
2022/05/18 12:59:06;;;;;;;6.23;3.50;;;44.40;30.70;;;;;;5014384;28;20462;-68
2022/05/18 13:01:37;;;;;;;3.30;3.00;;;44.90;30.10;;;;;;5014268;28;20194;-68
2022/05/18 13:04:08;;;;;;;3.70;3.20;;;45.10;29.90;;;;;;5015631;28;20473;-68
2022/05/18 13:06:42;;;;;;;2.97;2.63;;;45.30;29.70;;;;;;5017114;28;20461;-69
2022/05/18 13:09:26;;;;;;;3.23;2.87;;;45.40;29.50;;;;;;5030129;28;20470;-70
2022/05/18 13:11:58;;;;;;;5.83;4.30;;;45.10;29.00;;;;;;5014556;28;20442;-69
2022/05/18 13:14:35;;;;;;;5.00;3.43;;;45.10;29.10;;;;;;5015231;28;20462;-69
2022/05/18 13:17:10;;;;;;;4.13;2.97;;;44.90;29.30;;;;;;5015143;28;20483;-69
2022/05/18 13:19:36;;;;;;;4.93;2.80;;;44.70;29.10;;;;;;5014469;28;20458;-69
2022/05/18 13:22:17;;;;;;;3.47;3.03;;;44.60;29.30;;;;;;5017117;28;20812;-69
2022/05/18 13:24:52;;;;;;;3.70;3.40;;;44.20;29.30;;;;;;5016612;28;20175;-69